sensor_id;sensor_type;location;lat;lon;timestamp;pressure;altitude;pressure_sealevel;temperature;humidity
9229;BME280;4649;42.644;23.284;2023-08-06T00:01:55;91902.31;;;18.68;100.00
9229;BME280;4649;42.644;23.284;2023-08-06T00:04:22;91940.31;;;18.28;100.00
9229;BME280;4649;42.644;23.284;2023-08-06T00:06:58;91937.59;;;17.94;100.00
9229;BME280;4649;42.644;23.284;2023-08-06T00:09:25;91892.59;;;17.71;100.00
9229;BME280;4649;42.644;23.284;2023-08-06T00:11:53;91934.28;;;17.96;100.00
9229;BME280;4649;42.644;23.284;2023-08-06T00:14:20;92017.28;;;18.66;100.00
9229;BME280;4649;42.644;23.284;2023-08-06T00:16:47;91997.53;;;18.24;100.00
9229;BME280;4649;42.644;23.284;2023-08-06T00:19:14;91921.09;;;17.85;100.00
9229;BME280;4649;42.644;23.284;2023-08-06T00:21:42;92011.50;;;18.45;100.00
9229;BME280;4649;42.644;23.284;2023-08-06T00:24:12;91989.59;;;18.45;100.00
9229;BME280;4649;42.644;23.284;2023-08-06T00:26:40;91970.47;;;18.54;100.00
9229;BME280;4649;42.644;23.284;2023-08-06T00:29:07;91967.28;;;18.48;100.00
9229;BME280;4649;42.644;23.284;2023-08-06T00:31:35;92054.00;;;19.23;100.00
9229;BME280;4649;42.644;23.284;2023-08-06T00:34:03;91874.69;;;18.04;100.00
9229;BME280;4649;42.644;23.284;2023-08-06T00:36:34;92021.09;;;19.23;100.00
9229;BME280;4649;42.644;23.284;2023-08-06T00:39:02;92044.72;;;19.45;100.00
9229;BME280;4649;42.644;23.284;2023-08-06T00:41:37;91882.19;;;18.20;100.00
9229;BME280;4649;42.644;23.284;2023-08-06T00:44:05;91958.16;;;18.72;100.00
9229;BME280;4649;42.644;23.284;2023-08-06T00:46:32;91899.56;;;18.15;100.00
9229;BME280;4649;42.644;23.284;2023-08-06T00:49:01;91942.16;;;17.92;100.00
9229;BME280;4649;42.644;23.284;2023-08-06T00:51:28;91899.50;;;17.55;100.00
9229;BME280;4649;42.644;23.284;2023-08-06T00:53:56;92042.81;;;18.68;100.00
9229;BME280;4649;42.644;23.284;2023-08-06T00:56:24;91881.19;;;17.82;100.00
9229;BME280;4649;42.644;23.284;2023-08-06T00:58:56;91908.31;;;18.14;100.00
9229;BME280;4649;42.644;23.284;2023-08-06T01:01:27;92014.06;;;19.03;100.00
9229;BME280;4649;42.644;23.284;2023-08-06T01:04:10;92009.78;;;19.09;100.00
9229;BME280;4649;42.644;23.284;2023-08-06T01:09:37;91824.75;;;18.13;100.00
9229;BME280;4649;42.644;23.284;2023-08-06T01:12:17;92003.94;;;19.32;100.00
9229;BME280;4649;42.644;23.284;2023-08-06T01:14:54;91938.66;;;18.94;100.00
9229;BME280;4649;42.644;23.284;2023-08-06T01:17:26;91819.81;;;18.11;100.00
9229;BME280;4649;42.644;23.284;2023-08-06T01:20:03;91814.91;;;18.10;100.00
9229;BME280;4649;42.644;23.284;2023-08-06T01:22:39;91920.31;;;18.88;100.00
9229;BME280;4649;42.644;23.284;2023-08-06T01:25:08;91990.78;;;19.21;100.00
9229;BME280;4649;42.644;23.284;2023-08-06T01:27:44;91893.06;;;18.63;100.00
9229;BME280;4649;42.644;23.284;2023-08-06T01:30:17;91937.66;;;18.99;100.00
9229;BME280;4649;42.644;23.284;2023-08-06T01:32:50;91934.84;;;19.07;100.00
9229;BME280;4649;42.644;23.284;2023-08-06T01:35:23;91819.72;;;18.45;100.00
9229;BME280;4649;42.644;23.284;2023-08-06T01:37:56;91789.13;;;18.39;100.00
9229;BME280;4649;42.644;23.284;2023-08-06T01:40:26;91964.00;;;19.48;100.00
9229;BME280;4649;42.644;23.284;2023-08-06T01:42:55;91965.56;;;19.41;100.00
9229;BME280;4649;42.644;23.284;2023-08-06T01:45:23;91796.06;;;18.40;100.00
9229;BME280;4649;42.644;23.284;2023-08-06T01:47:52;91869.94;;;18.83;100.00
9229;BME280;4649;42.644;23.284;2023-08-06T01:50:26;91820.13;;;18.41;100.00
9229;BME280;4649;42.644;23.284;2023-08-06T01:53:09;91813.22;;;18.40;100.00
9229;BME280;4649;42.644;23.284;2023-08-06T01:55:42;91882.97;;;19.01;100.00
9229;BME280;4649;42.644;23.284;2023-08-06T01:58:18;91818.47;;;18.55;100.00
9229;BME280;4649;42.644;23.284;2023-08-06T02:01:02;91812.16;;;18.62;100.00
9229;BME280;4649;42.644;23.284;2023-08-06T02:03:35;91936.16;;;19.60;100.00
9229;BME280;4649;42.644;23.284;2023-08-06T02:06:04;91906.47;;;19.31;100.00
9229;BME280;4649;42.644;23.284;2023-08-06T02:08:45;91964.47;;;19.63;100.00
9229;BME280;4649;42.644;23.284;2023-08-06T02:11:17;91829.50;;;18.74;100.00
9229;BME280;4649;42.644;23.284;2023-08-06T02:13:58;91905.06;;;19.03;100.00
9229;BME280;4649;42.644;23.284;2023-08-06T02:16:26;91833.78;;;18.58;100.00
9229;BME280;4649;42.644;23.284;2023-08-06T02:18:54;91931.41;;;19.16;100.00
9229;BME280;4649;42.644;23.284;2023-08-06T02:21:23;92007.47;;;19.51;100.00
9229;BME280;4649;42.644;23.284;2023-08-06T02:23:55;91952.09;;;19.36;100.00
9229;BME280;4649;42.644;23.284;2023-08-06T02:26:24;91801.69;;;18.16;100.00
9229;BME280;4649;42.644;23.284;2023-08-06T02:28:51;91965.56;;;19.41;100.00
9229;BME280;4649;42.644;23.284;2023-08-06T02:31:23;91794.88;;;18.33;100.00
9229;BME280;4649;42.644;23.284;2023-08-06T02:33:57;91799.06;;;18.34;100.00
9229;BME280;4649;42.644;23.284;2023-08-06T02:36:39;91959.44;;;19.24;100.00
9229;BME280;4649;42.644;23.284;2023-08-06T02:39:11;91897.81;;;18.63;100.00
9229;BME280;4649;42.644;23.284;2023-08-06T02:41:40;91996.00;;;19.36;100.00
9229;BME280;4649;42.644;23.284;2023-08-06T02:44:11;91821.19;;;18.20;100.00
9229;BME280;4649;42.644;23.284;2023-08-06T02:46:39;91869.84;;;18.64;100.00
9229;BME280;4649;42.644;23.284;2023-08-06T02:49:09;91972.06;;;19.46;100.00
9229;BME280;4649;42.644;23.284;2023-08-06T02:51:38;91791.44;;;18.33;100.00
9229;BME280;4649;42.644;23.284;2023-08-06T02:54:07;91810.81;;;18.54;100.00
9229;BME280;4649;42.644;23.284;2023-08-06T02:56:37;91771.50;;;18.23;100.00
9229;BME280;4649;42.644;23.284;2023-08-06T02:59:06;91900.19;;;19.11;100.00
9229;BME280;4649;42.644;23.284;2023-08-06T03:01:36;91876.41;;;18.78;100.00
9229;BME280;4649;42.644;23.284;2023-08-06T03:04:05;91819.63;;;18.26;100.00
9229;BME280;4649;42.644;23.284;2023-08-06T03:06:33;91826.84;;;18.22;100.00
9229;BME280;4649;42.644;23.284;2023-08-06T03:09:01;91956.66;;;18.62;100.00
9229;BME280;4649;42.644;23.284;2023-08-06T03:11:30;91950.00;;;18.29;100.00
9229;BME280;4649;42.644;23.284;2023-08-06T03:14:00;91925.91;;;17.94;100.00
9229;BME280;4649;42.644;23.284;2023-08-06T03:16:29;91807.03;;;17.27;100.00
9229;BME280;4649;42.644;23.284;2023-08-06T03:18:56;91859.69;;;18.05;100.00
9229;BME280;4649;42.644;23.284;2023-08-06T03:21:24;91850.75;;;18.21;100.00
9229;BME280;4649;42.644;23.284;2023-08-06T03:23:53;91781.69;;;17.70;100.00
9229;BME280;4649;42.644;23.284;2023-08-06T03:26:23;91803.19;;;17.73;100.00
9229;BME280;4649;42.644;23.284;2023-08-06T03:28:53;91762.97;;;17.50;100.00
9229;BME280;4649;42.644;23.284;2023-08-06T03:31:24;91826.97;;;17.97;100.00
9229;BME280;4649;42.644;23.284;2023-08-06T03:33:54;91814.69;;;17.72;100.00
9229;BME280;4649;42.644;23.284;2023-08-06T03:36:23;91826.31;;;17.89;100.00
9229;BME280;4649;42.644;23.284;2023-08-06T03:38:53;91899.66;;;18.51;100.00
9229;BME280;4649;42.644;23.284;2023-08-06T03:41:20;91963.00;;;19.07;100.00
9229;BME280;4649;42.644;23.284;2023-08-06T03:43:51;91919.09;;;18.81;100.00
9229;BME280;4649;42.644;23.284;2023-08-06T03:46:26;91888.16;;;18.62;100.00
9229;BME280;4649;42.644;23.284;2023-08-06T03:48:53;91810.28;;;18.03;100.00
9229;BME280;4649;42.644;23.284;2023-08-06T03:51:22;91870.28;;;18.34;100.00
9229;BME280;4649;42.644;23.284;2023-08-06T03:53:51;91944.34;;;18.80;100.00
9229;BME280;4649;42.644;23.284;2023-08-06T03:56:19;91917.69;;;18.80;100.00
9229;BME280;4649;42.644;23.284;2023-08-06T03:58:48;91972.00;;;19.27;100.00
9229;BME280;4649;42.644;23.284;2023-08-06T04:01:15;91898.53;;;18.63;100.00
9229;BME280;4649;42.644;23.284;2023-08-06T04:04:03;91817.56;;;18.17;100.00
9229;BME280;4649;42.644;23.284;2023-08-06T04:06:30;91814.78;;;18.34;100.00
9229;BME280;4649;42.644;23.284;2023-08-06T04:09:05;91833.69;;;18.39;100.00
9229;BME280;4649;42.644;23.284;2023-08-06T04:11:37;91844.97;;;18.43;100.00
9229;BME280;4649;42.644;23.284;2023-08-06T04:14:06;91842.50;;;18.38;100.00
9229;BME280;4649;42.644;23.284;2023-08-06T04:16:41;91835.00;;;18.38;100.00
9229;BME280;4649;42.644;23.284;2023-08-06T04:19:29;91902.59;;;18.98;100.00
9229;BME280;4649;42.644;23.284;2023-08-06T04:22:11;91827.19;;;18.35;100.00
9229;BME280;4649;42.644;23.284;2023-08-06T04:24:40;91836.56;;;18.41;100.00
9229;BME280;4649;42.644;23.284;2023-08-06T04:27:09;91896.75;;;19.11;100.00
9229;BME280;4649;42.644;23.284;2023-08-06T04:29:38;91829.72;;;18.59;100.00
9229;BME280;4649;42.644;23.284;2023-08-06T04:32:12;91825.81;;;18.53;100.00
9229;BME280;4649;42.644;23.284;2023-08-06T04:34:47;91854.63;;;18.80;100.00
9229;BME280;4649;42.644;23.284;2023-08-06T04:37:19;91795.25;;;18.56;100.00
9229;BME280;4649;42.644;23.284;2023-08-06T04:39:53;91879.47;;;19.27;100.00
9229;BME280;4649;42.644;23.284;2023-08-06T04:42:36;91787.78;;;18.66;100.00
9229;BME280;4649;42.644;23.284;2023-08-06T04:45:18;91757.91;;;18.61;100.00
9229;BME280;4649;42.644;23.284;2023-08-06T04:47:55;91785.66;;;18.84;100.00
9229;BME280;4649;42.644;23.284;2023-08-06T04:57:26;91812.63;;;19.60;100.00
9229;BME280;4649;42.644;23.284;2023-08-06T05:00:00;91785.47;;;19.46;100.00
9229;BME280;4649;42.644;23.284;2023-08-06T05:02:49;91823.88;;;20.02;100.00
9229;BME280;4649;42.644;23.284;2023-08-06T20:19:30;92335.13;;;17.93;77.47
9229;BME280;4649;42.644;23.284;2023-08-06T20:22:12;92348.91;;;18.10;78.75
9229;BME280;4649;42.644;23.284;2023-08-06T20:24:54;92408.88;;;18.37;79.02
9229;BME280;4649;42.644;23.284;2023-08-06T20:27:39;92339.47;;;17.96;78.13
9229;BME280;4649;42.644;23.284;2023-08-06T20:32:48;92348.47;;;17.89;78.09
9229;BME280;4649;42.644;23.284;2023-08-06T20:35:47;92388.47;;;18.24;77.45
9229;BME280;4649;42.644;23.284;2023-08-06T20:38:17;92467.31;;;18.72;78.33
9229;BME280;4649;42.644;23.284;2023-08-06T20:41:01;92348.25;;;17.94;78.00
9229;BME280;4649;42.644;23.284;2023-08-06T20:43:45;92521.59;;;19.12;77.15
9229;BME280;4649;42.644;23.284;2023-08-06T20:46:32;92344.44;;;17.90;77.06
9229;BME280;4649;42.644;23.284;2023-08-06T20:49:14;92444.50;;;18.69;76.02
9229;BME280;4649;42.644;23.284;2023-08-06T20:58:37;92355.47;;;18.14;75.65
9229;BME280;4649;42.644;23.284;2023-08-06T21:01:19;92326.31;;;18.02;76.27
9229;BME280;4649;42.644;23.284;2023-08-06T21:04:21;92338.97;;;17.90;77.92
9229;BME280;4649;42.644;23.284;2023-08-06T21:07:11;92433.22;;;18.58;79.63
9229;BME280;4649;42.644;23.284;2023-08-06T21:09:55;92329.88;;;17.87;79.32
9229;BME280;4649;42.644;23.284;2023-08-06T21:12:36;92461.50;;;18.68;79.67
9229;BME280;4649;42.644;23.284;2023-08-06T21:18:48;92318.88;;;17.56;81.60
9229;BME280;4649;42.644;23.284;2023-08-06T21:21:44;92338.91;;;17.66;80.43
9229;BME280;4649;42.644;23.284;2023-08-06T21:24:41;92378.78;;;17.91;80.19
9229;BME280;4649;42.644;23.284;2023-08-06T21:27:26;92373.13;;;17.81;81.63
9229;BME280;4649;42.644;23.284;2023-08-06T21:30:08;92358.59;;;17.64;80.21
9229;BME280;4649;42.644;23.284;2023-08-06T21:32:40;92418.84;;;18.03;79.95
9229;BME280;4649;42.644;23.284;2023-08-06T21:35:24;92374.84;;;17.62;79.21
9229;BME280;4649;42.644;23.284;2023-08-06T21:38:05;92474.47;;;18.35;77.77
9229;BME280;4649;42.644;23.284;2023-08-06T21:40:35;92420.94;;;17.88;75.51
9229;BME280;4649;42.644;23.284;2023-08-06T21:43:04;92393.97;;;17.77;75.11
9229;BME280;4649;42.644;23.284;2023-08-06T21:45:37;92334.41;;;17.38;74.97
9229;BME280;4649;42.644;23.284;2023-08-06T21:48:19;92416.88;;;18.04;74.16
9229;BME280;4649;42.644;23.284;2023-08-06T21:50:51;92384.06;;;17.89;73.80
9229;BME280;4649;42.644;23.284;2023-08-06T21:53:18;92371.53;;;17.71;73.55
9229;BME280;4649;42.644;23.284;2023-08-06T21:56:00;92361.53;;;17.59;73.35
9229;BME280;4649;42.644;23.284;2023-08-06T21:58:36;92393.91;;;17.92;74.04
9229;BME280;4649;42.644;23.284;2023-08-06T22:01:06;92469.69;;;18.43;71.72
9229;BME280;4649;42.644;23.284;2023-08-06T22:03:36;92544.31;;;18.98;72.66
9229;BME280;4649;42.644;23.284;2023-08-06T22:06:13;92399.88;;;18.05;71.93
9229;BME280;4649;42.644;23.284;2023-08-06T22:08:43;92479.09;;;18.57;72.42
9229;BME280;4649;42.644;23.284;2023-08-06T22:11:11;92429.41;;;18.14;71.53
9229;BME280;4649;42.644;23.284;2023-08-06T22:13:44;92444.38;;;18.21;71.20
9229;BME280;4649;42.644;23.284;2023-08-06T22:16:13;92469.50;;;18.41;71.72
9229;BME280;4649;42.644;23.284;2023-08-06T22:18:45;92517.97;;;18.63;71.84
9229;BME280;4649;42.644;23.284;2023-08-06T22:21:24;92548.34;;;18.97;72.10
9229;BME280;4649;42.644;23.284;2023-08-06T22:23:56;92473.69;;;18.42;72.51
9229;BME280;4649;42.644;23.284;2023-08-06T22:26:24;92497.78;;;18.44;75.06
9229;BME280;4649;42.644;23.284;2023-08-06T22:28:52;92554.47;;;18.81;74.01
9229;BME280;4649;42.644;23.284;2023-08-06T22:31:21;92414.53;;;17.93;74.07
9229;BME280;4649;42.644;23.284;2023-08-06T22:33:58;92412.94;;;17.75;74.33
9229;BME280;4649;42.644;23.284;2023-08-06T22:36:28;92496.97;;;18.27;73.94
9229;BME280;4649;42.644;23.284;2023-08-06T22:38:57;92401.66;;;17.64;73.29
9229;BME280;4649;42.644;23.284;2023-08-06T22:41:25;92505.19;;;18.12;73.77
9229;BME280;4649;42.644;23.284;2023-08-06T22:43:52;92560.25;;;18.45;73.68
9229;BME280;4649;42.644;23.284;2023-08-06T22:46:20;92505.41;;;17.99;75.00
9229;BME280;4649;42.644;23.284;2023-08-06T22:48:48;92417.22;;;17.39;74.27
9229;BME280;4649;42.644;23.284;2023-08-06T22:51:16;92391.53;;;17.12;75.00
9229;BME280;4649;42.644;23.284;2023-08-06T22:53:48;92533.31;;;18.05;74.42
9229;BME280;4649;42.644;23.284;2023-08-06T22:56:15;92438.94;;;17.37;75.64
9229;BME280;4649;42.644;23.284;2023-08-06T22:58:43;92558.88;;;18.30;76.55
9229;BME280;4649;42.644;23.284;2023-08-06T23:01:11;92568.34;;;18.29;77.46
9229;BME280;4649;42.644;23.284;2023-08-06T23:03:38;92499.75;;;17.89;75.95
9229;BME280;4649;42.644;23.284;2023-08-06T23:06:06;92462.22;;;17.60;75.74
9229;BME280;4649;42.644;23.284;2023-08-06T23:08:37;92439.63;;;17.45;77.99
9229;BME280;4649;42.644;23.284;2023-08-06T23:11:06;92563.81;;;18.24;77.92
9229;BME280;4649;42.644;23.284;2023-08-06T23:13:38;92575.63;;;18.41;76.00
9229;BME280;4649;42.644;23.284;2023-08-06T23:16:06;92379.13;;;16.89;77.02
9229;BME280;4649;42.644;23.284;2023-08-06T23:18:34;92489.59;;;17.60;78.02
9229;BME280;4649;42.644;23.284;2023-08-06T23:21:02;92463.72;;;17.54;76.22
9229;BME280;4649;42.644;23.284;2023-08-06T23:23:30;92578.97;;;18.25;76.27
9229;BME280;4649;42.644;23.284;2023-08-06T23:25:58;92480.13;;;17.61;76.34
9229;BME280;4649;42.644;23.284;2023-08-06T23:28:30;92590.63;;;18.25;75.69
9229;BME280;4649;42.644;23.284;2023-08-06T23:30:59;92583.16;;;18.26;76.26
9229;BME280;4649;42.644;23.284;2023-08-06T23:33:31;92465.00;;;17.45;75.92
9229;BME280;4649;42.644;23.284;2023-08-06T23:35:58;92479.06;;;17.42;76.24
9229;BME280;4649;42.644;23.284;2023-08-06T23:38:33;92573.47;;;18.25;76.44
9229;BME280;4649;42.644;23.284;2023-08-06T23:41:03;92437.81;;;17.17;76.04
9229;BME280;4649;42.644;23.284;2023-08-06T23:43:32;92533.94;;;17.81;76.54
9229;BME280;4649;42.644;23.284;2023-08-06T23:46:06;92534.09;;;17.75;75.90
9229;BME280;4649;42.644;23.284;2023-08-06T23:48:34;92571.66;;;18.12;76.48
9229;BME280;4649;42.644;23.284;2023-08-06T23:51:04;92519.53;;;17.66;76.71
9229;BME280;4649;42.644;23.284;2023-08-06T23:53:32;92466.28;;;17.44;76.76
9229;BME280;4649;42.644;23.284;2023-08-06T23:56:01;92448.41;;;17.28;76.15
9229;BME280;4649;42.644;23.284;2023-08-06T23:58:33;92370.94;;;16.81;76.86
